Time;durP1;ratioP1;P1;durP2;ratioP2;P2;SDS_P1;SDS_P2;PMS_P1;PMS_P2;Temp;Humidity;BMP_temperature;BMP_pressure;BME280_temperature;BME280_humidity;BME280_pressure;Samples;Min_cycle;Max_cycle;Signal;HPM_P1;HPM_P2
2023/08/05 04:00:24;;;;;;;1.30;1.20;;;16.60;97.30;;;;;;6008825;23;20375;31
2023/08/05 04:02:51;;;;;;;1.17;1.10;;;16.60;97.30;;;;;;4891580;29;20555;-89
2023/08/05 04:05:16;;;;;;;1.97;1.87;;;16.60;97.30;;;;;;4894405;29;20453;-90
2023/08/05 04:07:42;;;;;;;1.03;0.93;;;16.60;97.30;;;;;;4910024;29;20496;-87
2023/08/05 04:10:08;;;;;;;1.10;1.00;;;16.50;97.30;;;;;;4894035;29;20244;-88
2023/08/05 04:12:35;;;;;;;3.63;1.53;;;16.50;97.30;;;;;;4894579;29;20272;-88
2023/08/05 04:15:02;;;;;;;2.13;1.67;;;16.60;97.30;;;;;;4894672;29;20469;-88
2023/08/05 04:17:28;;;;;;;1.70;1.60;;;16.50;97.30;;;;;;4911821;29;20821;-88
2023/08/05 04:19:53;;;;;;;1.17;1.07;;;16.50;97.30;;;;;;4896984;29;20425;-87
2023/08/05 04:22:21;;;;;;;0.90;0.80;;;16.50;97.30;;;;;;4895895;29;20229;-90
2023/08/05 04:24:47;;;;;;;3.13;1.60;;;16.50;97.30;;;;;;4904469;29;20226;-87
2023/08/05 04:27:12;;;;;;;1.30;1.20;;;16.50;97.30;;;;;;4896459;29;20441;-89
2023/08/05 04:29:44;;;;;;;1.00;0.90;;;16.50;97.30;;;;;;4895673;29;20190;-89
2023/08/05 04:32:09;;;;;;;0.93;0.90;;;16.50;97.30;;;;;;4931229;23;20235;-70
2023/08/05 04:34:37;;;;;;;1.20;1.10;;;16.60;97.30;;;;;;4948602;29;20462;-70
2023/08/05 04:37:19;;;;;;;1.33;1.23;;;16.60;97.30;;;;;;4930946;29;20180;-70
2023/08/05 04:39:45;;;;;;;1.20;1.10;;;16.50;97.30;;;;;;4962083;28;20430;-70
2023/08/05 04:42:11;;;;;;;1.23;1.17;;;16.50;97.30;;;;;;4952228;28;20913;-69
2023/08/05 04:44:40;;;;;;;1.93;1.10;;;16.60;97.30;;;;;;4937842;28;20424;-70
2023/08/05 04:47:09;;;;;;;1.43;1.33;;;16.50;97.30;;;;;;4953363;28;20442;-70
2023/08/05 04:49:35;;;;;;;1.10;1.00;;;16.50;97.30;;;;;;4936542;28;20757;-69
2023/08/05 04:52:06;;;;;;;1.10;1.00;;;16.50;97.30;;;;;;4933858;29;20855;-70
2023/08/05 04:54:43;;;;;;;1.40;1.30;;;16.50;97.30;;;;;;4948056;28;20938;-69
2023/08/05 04:57:09;;;;;;;1.27;1.20;;;16.50;97.30;;;;;;4924953;29;20795;-70
2023/08/05 04:59:35;;;;;;;1.33;1.23;;;16.40;97.30;;;;;;4940059;29;20431;-70
2023/08/05 05:02:01;;;;;;;7.60;1.47;;;16.40;97.30;;;;;;4939512;29;20478;-70
2023/08/05 05:04:27;;;;;;;1.67;1.57;;;16.40;97.30;;;;;;4937292;29;20734;-69
2023/08/05 05:06:52;;;;;;;2.20;1.00;;;16.40;97.30;;;;;;4951643;28;20430;-69
2023/08/05 05:09:18;;;;;;;1.10;1.00;;;16.40;97.30;;;;;;4938306;28;20180;-70
2023/08/05 05:11:44;;;;;;;2.43;1.27;;;16.40;97.30;;;;;;4934607;29;20639;-70
2023/08/05 05:14:09;;;;;;;1.70;1.47;;;16.40;97.30;;;;;;4935906;29;20263;-69
2023/08/05 05:16:36;;;;;;;1.40;1.30;;;16.40;97.30;;;;;;4942341;29;20246;-70
2023/08/05 05:19:02;;;;;;;1.80;1.50;;;16.40;97.30;;;;;;4940769;28;20451;-69
2023/08/05 05:21:27;;;;;;;3.60;2.20;;;16.40;97.30;;;;;;4937347;29;20200;-69
2023/08/05 05:23:53;;;;;;;1.90;1.80;;;16.40;97.30;;;;;;4937684;28;20663;-69
2023/08/05 05:26:18;;;;;;;1.93;1.83;;;16.40;97.30;;;;;;4940916;28;20191;-70
2023/08/05 05:28:44;;;;;;;1.60;1.50;;;16.40;97.30;;;;;;4939147;29;20647;-70
2023/08/05 05:31:09;;;;;;;1.30;1.20;;;16.40;97.30;;;;;;4942018;29;20266;-71
2023/08/05 05:33:36;;;;;;;3.47;1.47;;;16.30;97.30;;;;;;4938016;28;20754;-71
2023/08/05 05:36:01;;;;;;;1.20;1.20;;;16.30;97.30;;;;;;4940663;29;20259;-70
2023/08/05 05:38:27;;;;;;;1.43;1.10;;;16.30;97.30;;;;;;4934208;28;20420;-71
2023/08/05 05:40:55;;;;;;;2.23;1.27;;;16.30;97.30;;;;;;4941814;28;20214;-71
2023/08/05 05:43:21;;;;;;;1.27;1.17;;;16.30;97.30;;;;;;4934490;29;20598;-71
2023/08/05 05:45:47;;;;;;;1.17;1.10;;;16.30;97.30;;;;;;4932611;29;21120;-73
2023/08/05 05:48:13;;;;;;;2.07;1.93;;;16.30;97.30;;;;;;4931679;29;20528;-72
2023/08/05 05:50:42;;;;;;;1.73;1.63;;;16.20;97.30;;;;;;4947201;28;20201;-72
2023/08/05 05:53:08;;;;;;;1.83;1.73;;;16.20;97.30;;;;;;4933747;29;20712;-72
2023/08/05 05:55:34;;;;;;;1.00;0.90;;;16.20;97.30;;;;;;4946798;28;20470;-72
2023/08/05 05:57:59;;;;;;;1.47;1.37;;;16.20;97.30;;;;;;4947297;28;20827;-71
2023/08/05 06:00:25;;;;;;;1.10;1.00;;;16.20;97.30;;;;;;4931876;29;20211;-71
2023/08/05 06:02:51;;;;;;;1.63;1.53;;;16.20;97.30;;;;;;4935939;29;20179;-71
2023/08/05 06:05:17;;;;;;;2.27;2.03;;;16.30;97.30;;;;;;4932877;29;20644;-71
2023/08/05 06:07:43;;;;;;;4.20;1.57;;;16.30;97.30;;;;;;4931172;29;20258;-71
2023/08/05 06:10:09;;;;;;;1.00;0.90;;;16.30;97.30;;;;;;4943690;29;20860;-72
2023/08/05 06:12:37;;;;;;;1.93;1.83;;;16.40;97.30;;;;;;4938869;28;20425;-71
2023/08/05 06:15:04;;;;;;;1.93;1.83;;;16.40;97.30;;;;;;4938505;29;21057;-71
2023/08/05 06:17:29;;;;;;;1.70;1.50;;;16.40;97.30;;;;;;4930665;29;20435;-72
2023/08/05 06:19:55;;;;;;;1.30;1.20;;;16.50;97.30;;;;;;4932468;29;20432;-71
2023/08/05 06:22:21;;;;;;;2.47;1.87;;;16.50;97.30;;;;;;4940987;28;20270;-72
2023/08/05 06:24:46;;;;;;;1.60;1.50;;;16.60;97.30;;;;;;4948986;28;20242;-72
2023/08/05 06:27:12;;;;;;;4.00;1.40;;;16.60;97.30;;;;;;4940669;29;20183;-72
2023/08/05 06:29:37;;;;;;;1.20;1.10;;;16.70;97.30;;;;;;4941277;28;20313;-72
2023/08/05 06:32:03;;;;;;;1.00;0.90;;;16.70;97.30;;;;;;4937753;28;20231;-71
2023/08/05 06:34:29;;;;;;;3.00;2.27;;;16.80;97.30;;;;;;4928991;29;20186;-71
2023/08/05 06:36:54;;;;;;;1.47;1.40;;;16.90;97.30;;;;;;4929605;29;20187;-73
2023/08/05 06:39:20;;;;;;;1.77;1.67;;;17.00;97.30;;;;;;4931191;28;20184;-72
2023/08/05 06:41:47;;;;;;;1.33;1.30;;;17.00;97.30;;;;;;4916690;29;20254;-71
2023/08/05 06:44:12;;;;;;;4.77;1.33;;;17.10;97.30;;;;;;4927648;29;20941;-73
2023/08/05 06:46:39;;;;;;;1.40;1.30;;;17.10;97.30;;;;;;4929078;29;20271;-71
2023/08/05 06:49:05;;;;;;;2.50;1.00;;;17.20;97.30;;;;;;4937548;29;20583;-71
2023/08/05 06:51:33;;;;;;;4.07;1.60;;;17.30;97.30;;;;;;4943055;29;20478;-71
2023/08/05 06:53:59;;;;;;;1.20;1.00;;;17.30;97.30;;;;;;4931469;29;20440;-72
2023/08/05 06:56:25;;;;;;;1.97;1.83;;;17.40;97.30;;;;;;4940439;28;20898;-72
2023/08/05 06:58:50;;;;;;;1.87;1.37;;;17.40;97.30;;;;;;4934273;29;20171;-72
2023/08/05 07:01:16;;;;;;;2.60;1.23;;;17.50;97.30;;;;;;4938943;29;20221;-72
2023/08/05 07:03:44;;;;;;;1.60;1.53;;;17.50;97.30;;;;;;4936102;29;20187;-71
2023/08/05 07:06:10;;;;;;;1.60;1.50;;;17.60;97.30;;;;;;4936239;29;20206;-71
2023/08/05 07:08:36;;;;;;;1.77;1.43;;;17.70;97.30;;;;;;4936196;29;20812;-72
2023/08/05 07:11:02;;;;;;;1.47;1.37;;;17.70;97.30;;;;;;4932257;28;20695;-71
2023/08/05 07:13:28;;;;;;;1.43;1.33;;;17.70;97.30;;;;;;4949128;28;20221;-72
2023/08/05 07:16:00;;;;;;;1.43;1.33;;;17.80;97.30;;;;;;4948821;28;20494;-71
2023/08/05 07:18:26;;;;;;;1.10;1.00;;;17.80;97.30;;;;;;4949025;29;20671;-72
2023/08/05 07:20:52;;;;;;;1.53;1.50;;;17.90;97.30;;;;;;4933549;28;20450;-71
2023/08/05 07:23:18;;;;;;;2.07;1.87;;;17.90;97.30;;;;;;4940105;29;20179;-71
2023/08/05 07:25:43;;;;;;;1.80;1.13;;;18.00;97.30;;;;;;4936910;28;20727;-71
2023/08/05 07:28:09;;;;;;;1.20;1.10;;;18.00;97.30;;;;;;4917527;29;20553;-71
2023/08/05 07:30:35;;;;;;;1.50;1.40;;;18.10;97.30;;;;;;4909986;29;20578;-72
2023/08/05 07:33:02;;;;;;;4.40;1.67;;;18.10;97.30;;;;;;4922173;29;20660;-71
2023/08/05 07:35:28;;;;;;;1.20;1.17;;;18.20;97.30;;;;;;4936098;29;20199;-71
2023/08/05 07:37:55;;;;;;;1.63;1.53;;;18.20;97.30;;;;;;4931347;29;20431;-71
2023/08/05 07:40:22;;;;;;;1.17;1.03;;;18.30;97.30;;;;;;4931428;29;20424;-70
2023/08/05 07:42:49;;;;;;;17.93;1.83;;;18.30;97.30;;;;;;4927937;29;20437;-71
2023/08/05 07:45:17;;;;;;;1.33;1.20;;;18.30;97.30;;;;;;4929178;29;20946;-73
2023/08/05 07:47:44;;;;;;;1.50;1.20;;;18.40;97.30;;;;;;4931718;29;21195;-71
2023/08/05 07:50:11;;;;;;;1.70;1.60;;;18.40;97.30;;;;;;4929443;28;20451;-70
2023/08/05 07:52:37;;;;;;;1.30;1.10;;;18.40;97.30;;;;;;4934633;28;20430;-70
2023/08/05 07:55:04;;;;;;;3.40;3.20;;;18.50;97.30;;;;;;4933739;28;20479;-70
2023/08/05 07:57:30;;;;;;;1.90;1.83;;;18.60;97.30;;;;;;4936471;28;20430;-69
2023/08/05 07:59:56;;;;;;;1.43;1.27;;;18.60;97.30;;;;;;4942107;29;20427;-69
2023/08/05 08:02:24;;;;;;;1.20;1.10;;;18.70;97.30;;;;;;4930943;29;20439;-68
2023/08/05 08:04:53;;;;;;;1.20;1.10;;;18.70;97.30;;;;;;4937552;29;20528;-72
2023/08/05 08:07:18;;;;;;;0.83;0.77;;;18.80;97.30;;;;;;4926082;29;20427;-69
2023/08/05 08:09:44;;;;;;;1.10;1.00;;;18.80;97.30;;;;;;4932710;28;20424;-70
2023/08/05 08:12:10;;;;;;;1.77;1.67;;;18.80;97.30;;;;;;4934505;29;20196;-69
2023/08/05 08:14:36;;;;;;;1.70;1.63;;;18.90;97.30;;;;;;4938077;29;20424;-69
2023/08/05 08:17:01;;;;;;;1.87;1.77;;;18.90;97.30;;;;;;4945694;29;20426;-69
2023/08/05 08:19:27;;;;;;;1.57;1.30;;;19.00;97.30;;;;;;4936755;28;20243;-69
2023/08/05 08:21:53;;;;;;;2.90;1.80;;;19.10;97.30;;;;;;4942741;29;20211;-69
2023/08/05 08:24:18;;;;;;;1.00;0.90;;;19.10;97.30;;;;;;4938818;29;20183;-69
2023/08/05 08:26:44;;;;;;;1.73;1.63;;;19.20;97.30;;;;;;4936268;28;20656;-68
2023/08/05 08:29:11;;;;;;;1.20;1.00;;;19.30;97.30;;;;;;4933447;28;20238;-71
2023/08/05 08:31:37;;;;;;;1.37;1.27;;;19.30;97.30;;;;;;4939732;29;20462;-68
2023/08/05 08:34:02;;;;;;;1.17;1.17;;;19.40;97.30;;;;;;4943837;28;20770;-69
2023/08/05 08:36:28;;;;;;;1.57;1.40;;;19.40;97.30;;;;;;4937299;29;20247;-69
2023/08/05 08:38:53;;;;;;;1.33;1.10;;;19.40;97.30;;;;;;4930772;29;20192;-69
2023/08/05 08:41:19;;;;;;;1.33;1.23;;;19.50;97.30;;;;;;4941416;29;20540;-69
2023/08/05 08:43:46;;;;;;;1.00;0.90;;;19.50;97.30;;;;;;4942079;29;20743;-69
2023/08/05 08:46:13;;;;;;;2.90;2.70;;;19.50;97.30;;;;;;4934532;29;20407;-69
2023/08/05 08:48:39;;;;;;;1.70;1.17;;;19.50;97.30;;;;;;4936848;28;20442;-69
2023/08/05 08:51:06;;;;;;;1.20;1.10;;;19.60;97.30;;;;;;4930758;28;20451;-67
2023/08/05 08:53:32;;;;;;;1.10;1.00;;;19.60;97.30;;;;;;4939464;29;20431;-68
2023/08/05 08:55:58;;;;;;;1.20;1.10;;;19.60;97.30;;;;;;4933185;29;20471;-69
2023/08/05 08:58:23;;;;;;;1.10;1.00;;;19.70;97.30;;;;;;4946737;28;20430;-70
2023/08/05 09:00:50;;;;;;;1.20;1.10;;;19.70;97.30;;;;;;4946264;29;20581;-69
2023/08/05 09:03:17;;;;;;;13.00;1.47;;;19.70;97.30;;;;;;4931217;28;20270;-69
2023/08/05 09:05:52;;;;;;;1.10;1.00;;;19.70;97.30;;;;;;4939513;28;20473;-68
2023/08/05 09:08:18;;;;;;;1.23;1.20;;;19.80;97.30;;;;;;4943961;29;20445;-69
2023/08/05 09:10:45;;;;;;;2.17;2.00;;;19.80;97.30;;;;;;4928194;29;20459;-69
2023/08/05 09:13:10;;;;;;;2.73;0.90;;;19.80;97.30;;;;;;4937471;29;20538;-69
2023/08/05 09:15:37;;;;;;;1.40;1.30;;;19.80;97.30;;;;;;4934884;29;21005;-69
2023/08/05 09:18:04;;;;;;;1.43;1.00;;;19.80;97.30;;;;;;4946471;28;20935;-69
2023/08/05 09:20:33;;;;;;;3.53;1.73;;;19.80;97.30;;;;;;4941586;29;20438;-69
2023/08/05 09:23:01;;;;;;;5.10;1.60;;;19.80;97.30;;;;;;4941831;28;20419;-69
2023/08/05 09:25:29;;;;;;;1.50;1.40;;;19.80;97.30;;;;;;4937373;28;20503;-70
2023/08/05 09:27:56;;;;;;;0.70;0.70;;;19.80;97.30;;;;;;4945239;28;20439;-70
2023/08/05 09:30:23;;;;;;;4.53;1.63;;;19.80;97.30;;;;;;4941842;29;20843;-69
2023/08/05 09:32:49;;;;;;;1.20;1.10;;;19.90;97.30;;;;;;4942944;29;20475;-69
2023/08/05 09:35:15;;;;;;;1.00;0.90;;;19.90;97.30;;;;;;4934330;29;20494;-69
2023/08/05 09:37:49;;;;;;;2.23;1.93;;;19.90;97.30;;;;;;4944788;28;20601;-68
2023/08/05 09:40:24;;;;;;;1.00;0.90;;;20.00;97.30;;;;;;4940653;28;20640;-68
2023/08/05 09:42:52;;;;;;;2.60;1.10;;;20.10;97.30;;;;;;4940274;28;20993;-69
2023/08/05 09:45:19;;;;;;;1.00;1.00;;;20.10;97.30;;;;;;4931089;29;20439;-69
2023/08/05 09:47:52;;;;;;;1.23;0.97;;;20.20;97.30;;;;;;4942149;29;21076;-68
2023/08/05 09:50:18;;;;;;;1.13;1.07;;;20.20;97.30;;;;;;4946430;29;20427;-69
2023/08/05 09:52:45;;;;;;;1.87;1.63;;;20.20;97.30;;;;;;4944275;29;20431;-68
2023/08/05 09:55:14;;;;;;;1.13;1.03;;;20.20;97.30;;;;;;4931628;29;20204;-69
2023/08/05 09:57:43;;;;;;;0.70;0.70;;;20.30;97.30;;;;;;4936813;29;20958;-68
2023/08/05 10:00:11;;;;;;;1.13;1.07;;;20.30;97.30;;;;;;4940158;29;20423;-68
2023/08/05 10:02:41;;;;;;;14.93;1.57;;;20.40;97.30;;;;;;4936149;29;20939;-71
2023/08/05 10:05:09;;;;;;;0.97;0.90;;;20.40;97.30;;;;;;4933307;29;20434;-68
2023/08/05 10:07:36;;;;;;;2.80;1.83;;;20.40;97.30;;;;;;4948614;29;20505;-69
2023/08/05 10:10:07;;;;;;;1.40;1.30;;;20.40;97.30;;;;;;4933587;29;20514;-68
2023/08/05 10:12:40;;;;;;;1.67;1.50;;;20.50;97.30;;;;;;4948870;28;20927;-68
2023/08/05 10:15:09;;;;;;;1.07;0.97;;;20.50;97.30;;;;;;4939916;29;20984;-68
2023/08/05 10:17:38;;;;;;;1.00;0.90;;;20.50;97.30;;;;;;4933120;29;20520;-69
2023/08/05 10:20:06;;;;;;;1.57;1.53;;;20.50;97.30;;;;;;4946647;29;20426;-69
2023/08/05 10:22:31;;;;;;;1.13;1.10;;;20.50;97.30;;;;;;4933899;29;20434;-68
2023/08/05 10:24:59;;;;;;;1.40;1.30;;;20.50;97.30;;;;;;4934971;28;20448;-69
2023/08/05 10:27:42;;;;;;;1.20;1.10;;;20.50;97.30;;;;;;4947178;29;20239;-68
2023/08/05 10:30:12;;;;;;;1.00;0.90;;;20.60;97.30;;;;;;4940324;29;20465;-69
2023/08/05 10:32:53;;;;;;;1.70;1.60;;;20.60;97.30;;;;;;4948211;28;20466;-68
2023/08/05 10:35:31;;;;;;;1.10;1.00;;;20.60;97.30;;;;;;4939925;28;20471;-69
2023/08/05 10:38:09;;;;;;;1.43;1.00;;;20.60;97.30;;;;;;4936692;29;20469;-68
2023/08/05 10:40:47;;;;;;;1.00;0.90;;;20.60;97.10;;;;;;4935830;29;20438;-68
2023/08/05 10:43:33;;;;;;;3.33;1.43;;;20.60;97.20;;;;;;4946111;28;20414;-68
2023/08/05 10:46:05;;;;;;;2.70;1.90;;;20.70;96.70;;;;;;4939095;29;20482;-68
2023/08/05 10:48:51;;;;;;;1.00;0.93;;;20.70;97.30;;;;;;4932572;29;20517;-68
2023/08/05 10:51:18;;;;;;;1.33;1.00;;;20.70;97.10;;;;;;4934001;28;20863;-68
2023/08/05 10:53:53;;;;;;;1.17;1.17;;;20.70;97.30;;;;;;4948427;28;20798;-68
2023/08/05 10:56:19;;;;;;;0.97;0.87;;;20.80;97.30;;;;;;4948619;29;20484;-68
2023/08/05 10:58:50;;;;;;;1.00;0.90;;;20.80;97.00;;;;;;4942808;28;20602;-68
2023/08/05 11:01:17;;;;;;;2.80;1.43;;;20.80;96.90;;;;;;4946283;29;20233;-68
2023/08/05 11:03:45;;;;;;;1.97;1.87;;;20.80;97.00;;;;;;4944370;28;20428;-68
2023/08/05 11:06:14;;;;;;;1.40;1.30;;;20.80;97.20;;;;;;4941602;29;21016;-68
2023/08/05 11:08:41;;;;;;;1.17;1.07;;;20.80;96.80;;;;;;4935377;29;20428;-67
2023/08/05 11:11:13;;;;;;;2.90;1.77;;;20.80;97.00;;;;;;4932496;29;20443;-68
2023/08/05 11:13:40;;;;;;;4.20;1.60;;;20.80;97.10;;;;;;4935819;29;20499;-68
2023/08/05 11:16:08;;;;;;;1.40;1.30;;;20.80;96.90;;;;;;4932716;29;20471;-69
2023/08/05 11:18:34;;;;;;;1.37;1.30;;;20.80;96.40;;;;;;4927901;29;20864;-69
2023/08/05 11:21:01;;;;;;;1.00;0.90;;;20.80;96.80;;;;;;4940034;29;20990;-69
2023/08/05 11:23:27;;;;;;;3.63;2.10;;;20.80;96.70;;;;;;4944329;29;20188;-68
2023/08/05 11:25:53;;;;;;;1.10;0.90;;;20.80;96.80;;;;;;4939238;29;20420;-68
2023/08/05 11:28:20;;;;;;;2.40;1.27;;;20.80;96.40;;;;;;4936347;29;20430;-69
2023/08/05 11:30:46;;;;;;;1.57;1.47;;;20.80;96.30;;;;;;4945012;29;20448;-70
2023/08/05 11:33:11;;;;;;;1.80;1.40;;;20.80;96.40;;;;;;4935264;29;20489;-69
2023/08/05 11:35:48;;;;;;;1.30;1.20;;;20.90;96.70;;;;;;4946375;28;20672;-68
2023/08/05 11:38:18;;;;;;;1.43;1.30;;;20.90;96.90;;;;;;4939608;28;20234;-69
2023/08/05 11:40:49;;;;;;;1.73;1.63;;;21.00;96.80;;;;;;4950031;29;20484;-69
2023/08/05 11:43:16;;;;;;;0.97;0.87;;;21.10;97.10;;;;;;4941128;29;20450;-71
2023/08/05 11:45:42;;;;;;;1.57;1.47;;;21.10;97.20;;;;;;4950707;28;20437;-69
2023/08/05 11:48:16;;;;;;;1.10;1.00;;;21.10;96.90;;;;;;4943195;28;20443;-68
2023/08/05 11:50:42;;;;;;;1.83;1.00;;;21.20;96.10;;;;;;4943964;29;20434;-69
2023/08/05 11:53:08;;;;;;;1.00;0.90;;;21.10;96.10;;;;;;4941868;28;20425;-69
2023/08/05 11:55:36;;;;;;;1.60;1.50;;;21.10;95.80;;;;;;4935348;28;20198;-69
2023/08/05 11:58:03;;;;;;;0.90;0.80;;;21.10;95.90;;;;;;4950089;29;20415;-69
2023/08/05 12:00:29;;;;;;;1.33;1.10;;;21.20;96.10;;;;;;4932881;28;20612;-68
2023/08/05 12:02:55;;;;;;;1.10;1.00;;;21.20;95.70;;;;;;4938236;29;20422;-68
2023/08/05 12:05:20;;;;;;;1.33;1.23;;;21.20;95.80;;;;;;4940807;29;20423;-68
2023/08/05 12:07:46;;;;;;;1.80;1.80;;;21.20;96.10;;;;;;4942456;28;20186;-68
2023/08/05 12:10:15;;;;;;;2.03;1.80;;;21.20;96.10;;;;;;4938179;29;20291;-69
2023/08/05 12:12:48;;;;;;;1.00;0.90;;;21.20;95.90;;;;;;4940427;29;20183;-68
2023/08/05 12:15:27;;;;;;;1.37;1.10;;;21.20;95.10;;;;;;4932938;29;20999;-70
2023/08/05 12:17:55;;;;;;;1.33;1.10;;;21.20;95.30;;;;;;4931042;29;20427;-69
2023/08/05 12:20:23;;;;;;;1.00;1.00;;;21.20;95.80;;;;;;4939584;29;20420;-69
2023/08/05 12:22:50;;;;;;;2.90;1.60;;;21.30;95.80;;;;;;4932406;29;20415;-68
2023/08/05 12:25:16;;;;;;;2.13;1.97;;;21.30;95.20;;;;;;4931885;29;20621;-69
2023/08/05 12:27:42;;;;;;;2.60;1.60;;;21.30;95.20;;;;;;4935784;29;21003;-69
2023/08/05 12:30:09;;;;;;;1.00;0.90;;;21.20;94.70;;;;;;4935351;29;20549;-68
2023/08/05 12:32:35;;;;;;;1.03;1.00;;;21.20;94.50;;;;;;4940995;29;20477;-69
2023/08/05 12:35:02;;;;;;;0.80;0.80;;;21.20;94.60;;;;;;4948216;29;21019;-69
2023/08/05 12:37:27;;;;;;;2.63;1.63;;;21.20;94.80;;;;;;4937267;29;20427;-70
2023/08/05 12:39:53;;;;;;;1.43;1.10;;;21.20;94.80;;;;;;4932643;28;20427;-69
2023/08/05 12:42:18;;;;;;;1.70;1.60;;;21.20;94.60;;;;;;4936276;29;20211;-69
2023/08/05 12:44:44;;;;;;;1.07;1.03;;;21.20;94.40;;;;;;4940159;29;20184;-69
2023/08/05 12:47:10;;;;;;;2.43;1.37;;;21.20;94.30;;;;;;4933360;29;20230;-69
2023/08/05 12:49:36;;;;;;;1.97;1.87;;;21.20;94.30;;;;;;4938449;29;20176;-69
2023/08/05 12:52:05;;;;;;;1.23;1.20;;;21.20;94.00;;;;;;4941431;29;20200;-69
2023/08/05 12:54:30;;;;;;;1.17;1.13;;;21.10;93.90;;;;;;4931707;28;20419;-69
2023/08/05 12:56:56;;;;;;;1.37;1.17;;;21.10;93.90;;;;;;4930951;29;20856;-68
2023/08/05 12:59:22;;;;;;;1.00;0.90;;;21.10;93.80;;;;;;4932256;28;20202;-68
2023/08/05 13:01:47;;;;;;;0.97;0.87;;;21.10;94.20;;;;;;4933777;28;20199;-68
2023/08/05 13:04:13;;;;;;;2.20;1.47;;;21.10;94.30;;;;;;4935761;29;20180;-68
2023/08/05 13:06:39;;;;;;;1.00;0.90;;;21.20;94.20;;;;;;4936983;29;20665;-68
2023/08/05 13:09:04;;;;;;;1.47;1.37;;;21.20;94.40;;;;;;4921984;28;20427;-68
2023/08/05 13:11:30;;;;;;;1.00;0.90;;;21.20;94.60;;;;;;4923567;29;20347;-68
2023/08/05 13:13:55;;;;;;;1.13;1.03;;;21.20;94.40;;;;;;4921228;29;20187;-68
2023/08/05 13:16:21;;;;;;;1.93;1.83;;;21.20;94.30;;;;;;4923783;28;20723;-68
2023/08/05 13:18:46;;;;;;;1.00;0.90;;;21.20;94.30;;;;;;4915789;29;20642;-68
2023/08/05 13:21:12;;;;;;;1.00;0.90;;;21.20;94.20;;;;;;4917751;29;20287;-68
2023/08/05 13:23:37;;;;;;;1.63;1.13;;;21.20;94.90;;;;;;4930005;29;20274;-68
2023/08/05 13:26:03;;;;;;;2.00;1.10;;;21.20;94.90;;;;;;4933915;29;20184;-68
2023/08/05 13:28:28;;;;;;;1.97;1.60;;;21.20;95.50;;;;;;4930439;29;20187;-68
2023/08/05 13:31:01;;;;;;;1.40;1.30;;;21.20;96.20;;;;;;4932027;29;20374;-68
2023/08/05 13:33:27;;;;;;;1.00;0.90;;;21.20;96.20;;;;;;4933845;29;20585;-68
2023/08/05 13:35:53;;;;;;;3.33;1.37;;;21.20;96.40;;;;;;4934178;29;20510;-68
2023/08/05 13:38:19;;;;;;;1.07;0.97;;;21.20;96.80;;;;;;4932831;29;20459;-68
2023/08/05 13:40:52;;;;;;;1.27;1.27;;;21.30;97.20;;;;;;4929880;29;20724;-68
2023/08/05 13:43:18;;;;;;;1.47;1.37;;;21.30;97.10;;;;;;4928900;28;20431;-68
2023/08/05 13:45:51;;;;;;;1.20;1.10;;;21.30;97.10;;;;;;4932891;28;20423;-68
2023/08/05 13:48:16;;;;;;;2.00;1.53;;;21.30;97.30;;;;;;4932677;29;20195;-68
2023/08/05 13:50:42;;;;;;;1.13;1.03;;;21.30;97.30;;;;;;4933672;29;21037;-68
2023/08/05 13:53:08;;;;;;;1.10;1.00;;;21.30;97.20;;;;;;4932270;29;20559;-68
2023/08/05 13:55:34;;;;;;;2.80;2.03;;;21.20;97.30;;;;;;4933279;29;20219;-68
2023/08/05 13:57:59;;;;;;;1.47;1.37;;;21.20;97.30;;;;;;4931995;29;20180;-68
2023/08/05 14:00:25;;;;;;;3.53;1.70;;;21.10;97.30;;;;;;4932052;29;20440;-67
2023/08/05 14:02:54;;;;;;;1.57;1.47;;;21.10;97.30;;;;;;4941533;29;20184;-67
2023/08/05 14:05:20;;;;;;;2.30;1.70;;;21.10;97.30;;;;;;4938934;29;20188;-68
2023/08/05 14:07:46;;;;;;;1.27;1.17;;;21.10;97.30;;;;;;4931769;29;20483;-68
2023/08/05 14:10:12;;;;;;;2.20;1.07;;;21.10;97.30;;;;;;4939841;29;20423;-68
2023/08/05 14:12:38;;;;;;;1.53;1.43;;;21.00;97.30;;;;;;4931169;29;20487;-68
2023/08/05 14:15:04;;;;;;;1.00;0.90;;;21.00;97.30;;;;;;4933105;29;20211;-68
2023/08/05 14:17:29;;;;;;;1.10;1.00;;;21.00;97.30;;;;;;4932656;28;20227;-68
2023/08/05 14:19:58;;;;;;;1.00;0.90;;;21.00;97.30;;;;;;4933865;28;20426;-68
2023/08/05 14:22:23;;;;;;;1.50;1.40;;;20.90;97.30;;;;;;4928334;29;20199;-68
2023/08/05 14:24:49;;;;;;;1.00;0.90;;;20.90;97.30;;;;;;4934789;29;20802;-68
2023/08/05 14:27:14;;;;;;;1.03;0.93;;;20.90;97.30;;;;;;4934925;29;20561;-68
2023/08/05 14:29:40;;;;;;;0.87;0.83;;;20.90;97.30;;;;;;4935086;29;20231;-68
2023/08/05 14:32:06;;;;;;;1.30;1.20;;;20.90;97.30;;;;;;4933999;29;20782;-68
2023/08/05 14:34:31;;;;;;;1.03;1.00;;;21.00;97.30;;;;;;4934146;28;20184;-68
2023/08/05 14:36:57;;;;;;;1.37;1.27;;;21.00;97.30;;;;;;4934612;29;20215;-67
2023/08/05 14:39:23;;;;;;;1.00;0.90;;;21.00;97.30;;;;;;4931513;29;20297;-68
2023/08/05 14:41:49;;;;;;;1.10;1.00;;;21.00;97.30;;;;;;4934232;29;20206;-68
2023/08/05 14:44:14;;;;;;;1.40;1.33;;;21.00;97.30;;;;;;4931382;29;20419;-68
2023/08/05 14:46:41;;;;;;;1.10;1.00;;;21.00;97.30;;;;;;4932848;29;20195;-68
2023/08/05 14:49:07;;;;;;;1.20;1.13;;;21.00;97.30;;;;;;4934296;29;20184;-68
2023/08/05 14:51:32;;;;;;;0.90;0.80;;;21.00;97.30;;;;;;4935026;29;20450;-68
2023/08/05 14:53:58;;;;;;;1.40;1.30;;;20.90;97.30;;;;;;4932470;28;20506;-68
2023/08/05 14:56:25;;;;;;;1.30;1.20;;;20.90;97.30;;;;;;4932124;29;20684;-68
2023/08/05 14:58:51;;;;;;;1.43;1.33;;;20.90;97.30;;;;;;4936575;29;20428;-68
2023/08/05 15:01:16;;;;;;;1.50;1.40;;;20.90;97.30;;;;;;4933530;28;20447;-68
2023/08/05 15:03:46;;;;;;;1.00;0.90;;;20.90;97.30;;;;;;4938662;29;20686;-68
2023/08/05 15:06:12;;;;;;;2.90;1.83;;;20.90;97.30;;;;;;4939530;29;20179;-68
2023/08/05 15:08:38;;;;;;;1.27;1.17;;;20.90;97.30;;;;;;4931499;29;20503;-68
2023/08/05 15:11:04;;;;;;;1.30;1.20;;;20.80;97.30;;;;;;4933757;29;20478;-68
2023/08/05 15:13:29;;;;;;;0.90;0.80;;;20.80;97.30;;;;;;4932874;29;20191;-68
2023/08/05 15:15:55;;;;;;;1.37;1.30;;;20.80;97.30;;;;;;4937140;29;20195;-68
2023/08/05 15:18:21;;;;;;;7.60;2.00;;;20.80;97.30;;;;;;4941858;28;20182;-68
2023/08/05 15:20:46;;;;;;;1.17;1.07;;;20.90;97.30;;;;;;4932790;28;20203;-68
2023/08/05 15:23:12;;;;;;;1.20;1.10;;;20.90;97.30;;;;;;4932734;29;20290;-68
2023/08/05 15:25:37;;;;;;;1.00;0.90;;;20.90;97.30;;;;;;4941641;29;20195;-68
2023/08/05 15:28:03;;;;;;;1.23;1.13;;;20.90;97.30;;;;;;4945552;29;20188;-68
2023/08/05 15:30:37;;;;;;;1.00;0.90;;;20.90;97.30;;;;;;4932585;29;20204;-68
2023/08/05 15:33:03;;;;;;;19.33;1.27;;;20.90;97.30;;;;;;4931042;29;20306;-69
2023/08/05 15:35:28;;;;;;;1.20;1.10;;;20.90;97.30;;;;;;4939005;29;20530;-68
2023/08/05 15:37:54;;;;;;;1.60;1.50;;;21.00;97.30;;;;;;4932490;29;20180;-68
2023/08/05 15:40:19;;;;;;;1.20;1.07;;;21.00;97.30;;;;;;4927152;29;20196;-68
2023/08/05 15:42:45;;;;;;;1.73;1.20;;;21.00;97.30;;;;;;4945232;29;20278;-68
2023/08/05 15:45:11;;;;;;;1.00;0.90;;;21.10;97.30;;;;;;4930885;29;20187;-68
2023/08/05 15:47:38;;;;;;;1.10;1.00;;;21.10;97.30;;;;;;4937234;29;20247;-68
2023/08/05 15:50:04;;;;;;;1.00;1.00;;;21.10;97.30;;;;;;4930700;29;20673;-68
2023/08/05 15:52:30;;;;;;;3.13;2.37;;;21.10;97.30;;;;;;4933023;29;20432;-67
2023/08/05 15:54:55;;;;;;;1.00;0.90;;;21.10;97.30;;;;;;4931349;29;20188;-68
2023/08/05 15:57:21;;;;;;;1.00;0.90;;;21.10;97.30;;;;;;4931100;29;20183;-68
2023/08/05 15:59:50;;;;;;;1.07;1.00;;;21.10;97.30;;;;;;4940227;29;20186;-68
2023/08/05 16:02:15;;;;;;;1.50;1.40;;;21.20;97.30;;;;;;4931124;29;20200;-68
2023/08/05 16:04:41;;;;;;;1.43;1.30;;;21.20;97.30;;;;;;4931007;29;20430;-69
2023/08/05 16:07:06;;;;;;;2.33;1.70;;;21.20;97.30;;;;;;4930937;29;20179;-68
2023/08/05 16:09:32;;;;;;;1.27;0.90;;;21.20;97.30;;;;;;4930797;29;20187;-68
2023/08/05 16:11:58;;;;;;;1.20;1.10;;;21.10;97.30;;;;;;4930808;29;20214;-67
2023/08/05 16:14:23;;;;;;;1.67;1.57;;;21.10;97.30;;;;;;4948686;23;20557;-92
2023/08/05 16:16:49;;;;;;;1.20;1.10;;;21.10;97.30;;;;;;4910345;29;20265;-90
2023/08/05 16:19:14;;;;;;;1.43;1.10;;;21.10;97.30;;;;;;4914029;29;20260;-89
2023/08/05 16:21:40;;;;;;;1.07;1.00;;;21.20;97.30;;;;;;4912844;29;20192;-89
2023/08/05 16:24:05;;;;;;;1.10;1.00;;;21.20;97.30;;;;;;4917514;29;20201;-89
2023/08/05 16:26:31;;;;;;;1.77;1.73;;;21.20;97.30;;;;;;4927705;29;20328;-89
2023/08/05 16:28:56;;;;;;;1.00;0.90;;;21.20;97.30;;;;;;4932416;29;20681;-90
2023/08/05 16:31:23;;;;;;;1.20;1.20;;;21.20;97.30;;;;;;4933334;29;20192;-90
2023/08/05 16:33:49;;;;;;;1.10;1.00;;;21.20;97.30;;;;;;4931556;29;20235;-90
2023/08/05 16:36:15;;;;;;;1.80;1.37;;;21.20;97.30;;;;;;4931667;29;20471;-89
2023/08/05 16:38:44;;;;;;;1.93;1.23;;;21.20;97.30;;;;;;4935109;29;20433;-90
2023/08/05 16:41:10;;;;;;;1.27;1.17;;;21.20;97.30;;;;;;4939730;29;20180;-90
2023/08/05 16:43:36;;;;;;;1.53;1.37;;;21.30;97.30;;;;;;4947867;29;20438;-90